Map

Track Data

SID SEASON NUMBER BASIN SUBBASIN NAME ISO_TIME NATURE LAT LON WMO_WIND WMO_PRES WMO_AGENCY TRACK_TYPE DIST2LAND LANDFALL IFLAG USA_AGENCY USA_ATCF_ID USA_LAT USA_LON USA_RECORD USA_STATUS USA_WIND USA_PRES USA_SSHS USA_R34_NE USA_R34_SE USA_R34_SW USA_R34_NW USA_R50_NE USA_R50_SE USA_R50_SW USA_R50_NW USA_R64_NE USA_R64_SE USA_R64_SW USA_R64_NW USA_POCI USA_ROCI USA_RMW USA_EYE TOKYO_LAT TOKYO_LON TOKYO_GRADE TOKYO_WIND TOKYO_PRES TOKYO_R50_DIR TOKYO_R50_LONG TOKYO_R50_SHORT TOKYO_R30_DIR TOKYO_R30_LONG TOKYO_R30_SHORT TOKYO_LAND CMA_LAT CMA_LON CMA_CAT CMA_WIND CMA_PRES HKO_LAT HKO_LON HKO_CAT HKO_WIND HKO_PRES NEWDELHI_LAT NEWDELHI_LON NEWDELHI_GRADE NEWDELHI_WIND NEWDELHI_PRES NEWDELHI_CI NEWDELHI_DP NEWDELHI_POCI REUNION_LAT REUNION_LON REUNION_TYPE REUNION_WIND REUNION_PRES REUNION_TNUM REUNION_CI REUNION_RMW REUNION_R34_NE REUNION_R34_SE REUNION_R34_SW REUNION_R34_NW REUNION_R50_NE REUNION_R50_SE REUNION_R50_SW REUNION_R50_NW REUNION_R64_NE REUNION_R64_SE REUNION_R64_SW REUNION_R64_NW BOM_LAT BOM_LON BOM_TYPE BOM_WIND BOM_PRES BOM_TNUM BOM_CI BOM_RMW BOM_R34_NE BOM_R34_SE BOM_R34_SW BOM_R34_NW BOM_R50_NE BOM_R50_SE BOM_R50_SW BOM_R50_NW BOM_R64_NE BOM_R64_SE BOM_R64_SW BOM_R64_NW BOM_ROCI BOM_POCI BOM_EYE BOM_POS_METHOD BOM_PRES_METHOD NADI_LAT NADI_LON NADI_CAT NADI_WIND NADI_PRES WELLINGTON_LAT WELLINGTON_LON WELLINGTON_WIND WELLINGTON_PRES DS824_LAT DS824_LON DS824_STAGE DS824_WIND DS824_PRES TD9636_LAT TD9636_LON TD9636_STAGE TD9636_WIND TD9636_PRES TD9635_LAT TD9635_LON TD9635_WIND TD9635_PRES TD9635_ROCI NEUMANN_LAT NEUMANN_LON NEUMANN_CLASS NEUMANN_WIND NEUMANN_PRES MLC_LAT MLC_LON MLC_CLASS MLC_WIND MLC_PRES USA_GUST BOM_GUST BOM_GUST_PER REUNION_GUST REUNION_GUST_PER USA_SEAHGT USA_SEARAD_NE USA_SEARAD_SE USA_SEARAD_SW USA_SEARAD_NW STORM_SPEED STORM_DIR
1909240N24287 1909 44 NA NA NOT_NAMED 1909-08-28 00:00:00 TS 23.7000 -73.0000 35 hurdat_atl main 279 279 O_____________ hurdat_atl AL081909 23.7000 -73.0000 TS 35 0 15 306
1909240N24287 1909 44 NA NA NOT_NAMED 1909-08-28 03:00:00 TS 24.1403 -73.6721 main 328 328 P_____________ AL081909 24.1403 -73.6721 TS 35 0 16 305
1909240N24287 1909 44 NA NA NOT_NAMED 1909-08-28 06:00:00 TS 24.6000 -74.4000 35 hurdat_atl main 333 260 O_____________ hurdat_atl AL081909 24.6000 -74.4000 TS 35 0 17 304
1909240N24287 1909 44 NA NA NOT_NAMED 1909-08-28 09:00:00 TS 25.0801 -75.2071 main 260 201 P_____________ AL081909 25.0801 -75.2071 TS 37 0 17 302
1909240N24287 1909 44 NA NA NOT_NAMED 1909-08-28 12:00:00 TS 25.5000 -76.0000 40 hurdat_atl main 201 160 O_____________ hurdat_atl AL081909 25.5000 -76.0000 TS 40 0 15 298
1909240N24287 1909 44 NA NA NOT_NAMED 1909-08-28 15:00:00 TS 25.7945 -76.6807 main 152 122 P_____________ AL081909 25.7945 -76.6807 TS 40 0 13 293
1909240N24287 1909 44 NA NA NOT_NAMED 1909-08-28 18:00:00 TS 26.0000 -77.3000 40 hurdat_atl main 122 113 O_____________ hurdat_atl AL081909 26.0000 -77.3000 TS 40 0 12 289
1909240N24287 1909 44 NA NA NOT_NAMED 1909-08-28 21:00:00 TS 26.1797 -77.9152 main 123 122 P_____________ AL081909 26.1797 -77.9152 TS 42 0 11 286
1909240N24287 1909 44 NA NA NOT_NAMED 1909-08-29 00:00:00 TS 26.3000 -78.5000 45 hurdat_atl main 139 108 O_____________ hurdat_atl AL081909 26.3000 -78.5000 TS 45 0 11 281
1909240N24287 1909 44 NA NA NOT_NAMED 1909-08-29 03:00:00 TS 26.3737 -79.0672 main 99 49 P_____________ AL081909 26.3737 -79.0672 TS 45 0 10 276
1909240N24287 1909 44 NA NA NOT_NAMED 1909-08-29 06:00:00 TS 26.4000 -79.6000 45 hurdat_atl main 49 0 O_____________ hurdat_atl AL081909 26.4000 -79.6000 TS 45 0 9 272
1909240N24287 1909 44 NA NA NOT_NAMED 1909-08-29 09:00:00 TS 26.4000 -80.1000 45 hurdat_atl main 0 0 O_____________ hurdat_atl AL081909 26.4000 -80.1000 L TS 45 0 8 277
1909240N24287 1909 44 NA NA NOT_NAMED 1909-08-29 12:00:00 TS 26.5000 -80.5000 40 hurdat_atl main 0 0 O_____________ hurdat_atl AL081909 26.5000 -80.5000 TS 40 0 6 285
1909240N24287 1909 44 NA NA NOT_NAMED 1909-08-29 15:00:00 TS 26.5533 -80.7478 main 0 0 P_____________ AL081909 26.5533 -80.7478 TS 37 0 4 286
1909240N24287 1909 44 NA NA NOT_NAMED 1909-08-29 18:00:00 TS 26.6000 -80.9000 35 hurdat_atl main 0 0 O_____________ hurdat_atl AL081909 26.6000 -80.9000 TS 35 0 3 295
1909240N24287 1909 44 NA NA NOT_NAMED 1909-08-29 21:00:00 TS 26.6850 -81.0575 main 0 0 P_____________ AL081909 26.6850 -81.0575 TS 32 -1 3 307
1909240N24287 1909 44 NA NA NOT_NAMED 1909-08-30 00:00:00 TS 26.8000 -81.2000 30 hurdat_atl main 0 0 O_____________ hurdat_atl AL081909 26.8000 -81.2000 TD 30 -1 4 311
1909240N24287 1909 44 NA NA NOT_NAMED 1909-08-30 03:00:00 TS 26.9200 -81.3575 main 0 0 P_____________ AL081909 26.9200 -81.3575 TD 30 -1 4 318
1909240N24287 1909 44 NA NA NOT_NAMED 1909-08-30 06:00:00 TS 27.1000 -81.5000 30 hurdat_atl main 0 0 O_____________ hurdat_atl AL081909 27.1000 -81.5000 TD 30 -1 5 329
1909240N24287 1909 44 NA NA NOT_NAMED 1909-08-30 09:00:00 TS 27.3625 -81.6521 main 0 0 P_____________ AL081909 27.3625 -81.6521 TD 30 -1 6 344
1909240N24287 1909 44 NA NA NOT_NAMED 1909-08-30 12:00:00 TS 27.7000 -81.7000 30 hurdat_atl main 0 0 O_____________ hurdat_atl AL081909 27.7000 -81.7000 TD 30 -1 7 6
1909240N24287 1909 44 NA NA NOT_NAMED 1909-08-30 15:00:00 TS 28.0699 -81.5748 main 0 0 P_____________ AL081909 28.0699 -81.5748 TD 30 -1 9 24
1909240N24287 1909 44 NA NA NOT_NAMED 1909-08-30 18:00:00 TS 28.5000 -81.3000 30 hurdat_atl main 0 0 O_____________ hurdat_atl AL081909 28.5000 -81.3000 TD 30 -1 11 32
1909240N24287 1909 44 NA NA NOT_NAMED 1909-08-30 21:00:00 TS 28.9926 -80.9302 main 0 0 P_____________ AL081909 28.9926 -80.9302 TD 32 -1 12 35
1909240N24287 1909 44 NA NA NOT_NAMED 1909-08-31 00:00:00 TS 29.5000 -80.5000 35 hurdat_atl main 58 58 O_____________ hurdat_atl AL081909 29.5000 -80.5000 TS 35 0 12 36
1909240N24287 1909 44 NA NA NOT_NAMED 1909-08-31 03:00:00 TS 29.9799 -80.0924 main 115 115 P_____________ AL081909 29.9799 -80.0924 TS 35 0 11 38
1909240N24287 1909 44 NA NA NOT_NAMED 1909-08-31 06:00:00 TS 30.4000 -79.7000 35 hurdat_atl main 165 165 O_____________ hurdat_atl AL081909 30.4000 -79.7000 TS 35 0 10 41
1909240N24287 1909 44 NA NA NOT_NAMED 1909-08-31 09:00:00 TS 30.7299 -79.3346 main 200 195 P_____________ AL081909 30.7299 -79.3346 TS 35 0 9 45
1909240N24287 1909 44 NA NA NOT_NAMED 1909-08-31 12:00:00 TS 31.0000 -79.0000 35 hurdat_atl main 201 192 O_____________ hurdat_atl AL081909 31.0000 -79.0000 TS 35 0 8 46
1909240N24287 1909 44 NA NA NOT_NAMED 1909-08-31 15:00:00 TS 31.2526 -78.6929 main 189 187 P_____________ AL081909 31.2526 -78.6929 TS 32 -1 7 46
1909240N24287 1909 44 NA NA NOT_NAMED 1909-08-31 18:00:00 TS 31.5000 -78.4000 30 hurdat_atl main 191 O_____________ hurdat_atl AL081909 31.5000 -78.4000 TD 30 -1 7 45

About IBTrACS Database

This database is a web-friendly format of International Best Track Archive for Climate Stewardship (IBTrACS), a global best track data archive curated by NOAA dating back to 1842.

Updated: 2021-12-01